CheckWX is a tool to help pilots better visualize weather data.  It is not intended as a substitute for an official pre-flight weather briefing.

04:22:45 UTC

KMNN METAR
Marion Municipal Airport
Marion, Ohio, USA
Current

30 mins ago

KMNN 190353Z AUTO 28023G33KT 10SM OVC017 M02/M06 A2984 RMK AO2 PK WND 28033/0350 SLP114 T10171056
Observed
Jan-19 @ 03:53 UTC
Wind
  • 280° at 23 KTS
  • Gusting to 33 KTS
Visibility
10 SM
Flight Rules
MVFR
Cloud Levels
  • Overcast at 1,700' AGL
Temperature
-2°C / 28°F
Dewpoint
-6°C / 21°F
Humidity
74%
Altimeter
29.84" Hg
Pressure
1010.52 hPa
Previous

1 hour ago

KMNN 190253Z AUTO 28020G29KT 10SM OVC017 00/M03 A2981 RMK AO2 PK WND 28034/0232 SLP107 60000 T00001033 53002
Observed
Jan-19 @ 02:53 UTC
Wind
  • 280° at 20 KTS
  • Gusting to 29 KTS
Visibility
10 SM
Flight Rules
MVFR
Cloud Levels
  • Overcast at 1,700' AGL
Temperature
C / 32°F
Dewpoint
-3°C / 27°F
Humidity
80%
Altimeter
29.81" Hg
Pressure
1009.52 hPa
Previous

2 hours ago

KMNN 190225Z AUTO 27017G32KT 10SM BKN017 BKN023 OVC037 01/M03 A2980 RMK AO2 PK WND 27033/0213 T00061028
Observed
Jan-19 @ 02:25 UTC
Wind
  • 270° at 17 KTS
  • Gusting to 32 KTS
Visibility
10 SM
Flight Rules
MVFR
Cloud Levels
  • Broken at 1,700' AGL
  • Broken at 2,300' AGL
  • Overcast at 3,700' AGL
Temperature
C / 34°F
Dewpoint
-3°C / 27°F
Humidity
75%
Altimeter
29.8" Hg
Pressure
1009.12 hPa